sensor_id;sensor_type;location;lat;lon;timestamp;P1;durP1;ratioP1;P2;durP2;ratioP2
53108;SDS011;39007;53.090;6.074;2022-11-12T00:01:52;15.25;;;10.90;;
53108;SDS011;39007;53.090;6.074;2022-11-12T00:04:18;15.70;;;10.30;;
53108;SDS011;39007;53.090;6.074;2022-11-12T00:06:44;15.43;;;10.20;;
53108;SDS011;39007;53.090;6.074;2022-11-12T00:09:10;14.50;;;9.60;;
53108;SDS011;39007;53.090;6.074;2022-11-12T00:11:36;14.00;;;9.93;;
53108;SDS011;39007;53.090;6.074;2022-11-12T00:14:02;14.35;;;10.70;;
53108;SDS011;39007;53.090;6.074;2022-11-12T00:16:29;15.60;;;10.95;;
53108;SDS011;39007;53.090;6.074;2022-11-12T00:18:55;20.55;;;11.30;;
53108;SDS011;39007;53.090;6.074;2022-11-12T00:21:21;16.48;;;10.52;;
53108;SDS011;39007;53.090;6.074;2022-11-12T00:23:47;19.38;;;12.90;;
53108;SDS011;39007;53.090;6.074;2022-11-12T00:26:13;14.00;;;11.45;;
53108;SDS011;39007;53.090;6.074;2022-11-12T00:28:39;14.57;;;10.25;;
53108;SDS011;39007;53.090;6.074;2022-11-12T00:31:06;15.45;;;10.98;;
53108;SDS011;39007;53.090;6.074;2022-11-12T00:33:33;16.73;;;11.70;;
53108;SDS011;39007;53.090;6.074;2022-11-12T00:35:59;15.93;;;11.60;;
53108;SDS011;39007;53.090;6.074;2022-11-12T00:38:25;19.17;;;12.07;;
53108;SDS011;39007;53.090;6.074;2022-11-12T00:40:51;14.88;;;11.23;;
53108;SDS011;39007;53.090;6.074;2022-11-12T00:43:17;16.20;;;11.45;;
53108;SDS011;39007;53.090;6.074;2022-11-12T00:45:43;15.55;;;11.98;;
53108;SDS011;39007;53.090;6.074;2022-11-12T00:48:09;13.38;;;10.63;;
53108;SDS011;39007;53.090;6.074;2022-11-12T00:50:35;15.60;;;10.38;;
53108;SDS011;39007;53.090;6.074;2022-11-12T00:53:02;15.48;;;10.77;;
53108;SDS011;39007;53.090;6.074;2022-11-12T00:55:28;17.27;;;10.77;;
53108;SDS011;39007;53.090;6.074;2022-11-12T00:57:55;15.25;;;10.25;;
53108;SDS011;39007;53.090;6.074;2022-11-12T01:00:22;14.85;;;10.85;;
53108;SDS011;39007;53.090;6.074;2022-11-12T01:02:48;14.13;;;11.10;;
53108;SDS011;39007;53.090;6.074;2022-11-12T01:05:14;17.33;;;11.52;;
53108;SDS011;39007;53.090;6.074;2022-11-12T01:07:41;16.50;;;11.70;;
53108;SDS011;39007;53.090;6.074;2022-11-12T01:10:08;13.63;;;9.90;;
53108;SDS011;39007;53.090;6.074;2022-11-12T01:12:34;16.65;;;10.93;;
53108;SDS011;39007;53.090;6.074;2022-11-12T01:15:00;16.02;;;11.85;;
53108;SDS011;39007;53.090;6.074;2022-11-12T01:17:27;16.92;;;11.23;;
53108;SDS011;39007;53.090;6.074;2022-11-12T01:19:53;17.10;;;11.27;;
53108;SDS011;39007;53.090;6.074;2022-11-12T01:22:19;13.32;;;11.35;;
53108;SDS011;39007;53.090;6.074;2022-11-12T01:24:45;13.10;;;10.43;;
53108;SDS011;39007;53.090;6.074;2022-11-12T01:27:11;12.30;;;9.73;;
53108;SDS011;39007;53.090;6.074;2022-11-12T01:29:37;15.43;;;10.70;;
53108;SDS011;39007;53.090;6.074;2022-11-12T01:32:04;13.65;;;10.00;;
53108;SDS011;39007;53.090;6.074;2022-11-12T01:34:31;14.15;;;9.90;;
53108;SDS011;39007;53.090;6.074;2022-11-12T01:36:57;17.33;;;11.77;;
53108;SDS011;39007;53.090;6.074;2022-11-12T01:39:23;14.90;;;11.52;;
53108;SDS011;39007;53.090;6.074;2022-11-12T01:41:49;14.23;;;11.15;;
53108;SDS011;39007;53.090;6.074;2022-11-12T01:44:20;16.05;;;10.90;;
53108;SDS011;39007;53.090;6.074;2022-11-12T01:49:30;14.85;;;10.93;;
53108;SDS011;39007;53.090;6.074;2022-11-12T01:52:07;15.10;;;11.32;;
53108;SDS011;39007;53.090;6.074;2022-11-12T01:54:35;14.68;;;11.27;;
53108;SDS011;39007;53.090;6.074;2022-11-12T01:57:01;15.35;;;10.95;;
53108;SDS011;39007;53.090;6.074;2022-11-12T01:59:28;14.07;;;10.88;;
53108;SDS011;39007;53.090;6.074;2022-11-12T02:01:58;13.15;;;9.57;;
53108;SDS011;39007;53.090;6.074;2022-11-12T02:04:24;14.27;;;10.50;;
53108;SDS011;39007;53.090;6.074;2022-11-12T02:06:51;13.98;;;11.18;;
53108;SDS011;39007;53.090;6.074;2022-11-12T02:09:18;14.23;;;10.82;;
53108;SDS011;39007;53.090;6.074;2022-11-12T02:11:44;16.55;;;11.48;;
53108;SDS011;39007;53.090;6.074;2022-11-12T02:14:10;11.85;;;9.25;;
53108;SDS011;39007;53.090;6.074;2022-11-12T02:16:41;14.45;;;11.27;;
53108;SDS011;39007;53.090;6.074;2022-11-12T02:19:09;17.27;;;12.40;;
53108;SDS011;39007;53.090;6.074;2022-11-12T02:21:35;19.33;;;13.07;;
53108;SDS011;39007;53.090;6.074;2022-11-12T02:24:06;16.73;;;12.50;;
53108;SDS011;39007;53.090;6.074;2022-11-12T02:26:49;20.02;;;13.25;;
53108;SDS011;39007;53.090;6.074;2022-11-12T02:29:15;18.27;;;13.35;;
53108;SDS011;39007;53.090;6.074;2022-11-12T02:31:42;18.42;;;13.52;;
53108;SDS011;39007;53.090;6.074;2022-11-12T02:34:08;18.17;;;13.50;;
53108;SDS011;39007;53.090;6.074;2022-11-12T02:36:34;17.17;;;13.30;;
53108;SDS011;39007;53.090;6.074;2022-11-12T02:39:00;17.83;;;13.07;;
53108;SDS011;39007;53.090;6.074;2022-11-12T02:41:26;17.85;;;13.68;;
53108;SDS011;39007;53.090;6.074;2022-11-12T02:43:52;16.38;;;13.18;;
53108;SDS011;39007;53.090;6.074;2022-11-12T02:46:18;21.83;;;14.88;;
53108;SDS011;39007;53.090;6.074;2022-11-12T02:48:45;22.70;;;14.98;;
53108;SDS011;39007;53.090;6.074;2022-11-12T02:51:11;18.88;;;15.02;;
53108;SDS011;39007;53.090;6.074;2022-11-12T02:53:37;18.45;;;15.02;;
53108;SDS011;39007;53.090;6.074;2022-11-12T02:56:03;19.00;;;13.80;;
53108;SDS011;39007;53.090;6.074;2022-11-12T02:58:29;19.25;;;15.52;;
53108;SDS011;39007;53.090;6.074;2022-11-12T03:00:55;18.58;;;14.75;;
53108;SDS011;39007;53.090;6.074;2022-11-12T03:03:22;20.58;;;14.82;;
53108;SDS011;39007;53.090;6.074;2022-11-12T03:05:55;18.77;;;15.02;;
53108;SDS011;39007;53.090;6.074;2022-11-12T03:08:22;23.13;;;14.93;;
53108;SDS011;39007;53.090;6.074;2022-11-12T03:10:48;21.98;;;15.75;;
53108;SDS011;39007;53.090;6.074;2022-11-12T03:13:14;21.20;;;15.60;;
53108;SDS011;39007;53.090;6.074;2022-11-12T03:15:40;17.50;;;14.43;;
53108;SDS011;39007;53.090;6.074;2022-11-12T03:18:06;17.45;;;14.13;;
53108;SDS011;39007;53.090;6.074;2022-11-12T03:20:32;19.02;;;14.25;;
53108;SDS011;39007;53.090;6.074;2022-11-12T03:23:00;24.52;;;13.00;;
53108;SDS011;39007;53.090;6.074;2022-11-12T03:25:26;17.83;;;13.00;;
53108;SDS011;39007;53.090;6.074;2022-11-12T03:28:03;17.77;;;13.50;;
53108;SDS011;39007;53.090;6.074;2022-11-12T03:30:31;18.98;;;13.40;;
53108;SDS011;39007;53.090;6.074;2022-11-12T03:32:57;17.77;;;14.32;;
53108;SDS011;39007;53.090;6.074;2022-11-12T03:35:23;16.45;;;13.70;;
53108;SDS011;39007;53.090;6.074;2022-11-12T03:37:50;17.90;;;13.57;;
53108;SDS011;39007;53.090;6.074;2022-11-12T03:40:17;19.13;;;14.52;;
53108;SDS011;39007;53.090;6.074;2022-11-12T03:42:44;21.80;;;14.88;;
53108;SDS011;39007;53.090;6.074;2022-11-12T03:45:10;18.58;;;14.35;;
53108;SDS011;39007;53.090;6.074;2022-11-12T03:47:39;18.35;;;15.15;;
53108;SDS011;39007;53.090;6.074;2022-11-12T03:50:05;21.73;;;15.20;;
53108;SDS011;39007;53.090;6.074;2022-11-12T03:52:34;18.67;;;14.45;;
53108;SDS011;39007;53.090;6.074;2022-11-12T03:55:00;20.83;;;14.02;;
53108;SDS011;39007;53.090;6.074;2022-11-12T03:57:26;18.15;;;15.07;;
53108;SDS011;39007;53.090;6.074;2022-11-12T03:59:52;19.50;;;14.77;;
53108;SDS011;39007;53.090;6.074;2022-11-12T04:02:18;17.52;;;14.00;;
53108;SDS011;39007;53.090;6.074;2022-11-12T04:04:44;19.58;;;15.00;;
53108;SDS011;39007;53.090;6.074;2022-11-12T04:07:29;17.85;;;14.73;;
53108;SDS011;39007;53.090;6.074;2022-11-12T04:10:14;18.25;;;14.10;;
53108;SDS011;39007;53.090;6.074;2022-11-12T04:12:41;17.80;;;14.18;;
53108;SDS011;39007;53.090;6.074;2022-11-12T04:15:25;18.20;;;14.70;;
53108;SDS011;39007;53.090;6.074;2022-11-12T04:17:51;21.00;;;15.10;;
53108;SDS011;39007;53.090;6.074;2022-11-12T04:20:36;19.40;;;15.25;;
53108;SDS011;39007;53.090;6.074;2022-11-12T04:23:21;23.30;;;16.23;;
53108;SDS011;39007;53.090;6.074;2022-11-12T04:25:47;22.80;;;15.27;;
53108;SDS011;39007;53.090;6.074;2022-11-12T04:28:32;25.40;;;16.52;;
53108;SDS011;39007;53.090;6.074;2022-11-12T04:30:58;36.65;;;19.25;;
53108;SDS011;39007;53.090;6.074;2022-11-12T04:33:24;35.95;;;19.70;;
53108;SDS011;39007;53.090;6.074;2022-11-12T04:35:50;45.35;;;19.40;;
53108;SDS011;39007;53.090;6.074;2022-11-12T04:38:16;59.33;;;20.90;;
53108;SDS011;39007;53.090;6.074;2022-11-12T04:40:43;49.63;;;22.10;;
53108;SDS011;39007;53.090;6.074;2022-11-12T04:43:27;45.50;;;22.25;;
53108;SDS011;39007;53.090;6.074;2022-11-12T04:46:12;46.28;;;22.10;;
53108;SDS011;39007;53.090;6.074;2022-11-12T04:48:39;69.50;;;24.85;;
53108;SDS011;39007;53.090;6.074;2022-11-12T04:51:05;55.95;;;23.55;;
53108;SDS011;39007;53.090;6.074;2022-11-12T04:53:51;71.13;;;25.20;;
53108;SDS011;39007;53.090;6.074;2022-11-12T04:56:17;94.63;;;27.77;;
53108;SDS011;39007;53.090;6.074;2022-11-12T04:58:43;97.75;;;29.42;;
53108;SDS011;39007;53.090;6.074;2022-11-12T05:01:09;85.97;;;26.52;;
53108;SDS011;39007;53.090;6.074;2022-11-12T05:03:35;100.53;;;27.80;;
53108;SDS011;39007;53.090;6.074;2022-11-12T05:06:05;87.68;;;28.58;;
53108;SDS011;39007;53.090;6.074;2022-11-12T05:08:51;109.50;;;29.15;;
53108;SDS011;39007;53.090;6.074;2022-11-12T05:11:17;112.15;;;27.10;;
53108;SDS011;39007;53.090;6.074;2022-11-12T05:13:44;124.63;;;27.88;;
53108;SDS011;39007;53.090;6.074;2022-11-12T05:16:10;201.43;;;30.73;;
53108;SDS011;39007;53.090;6.074;2022-11-12T05:18:36;176.68;;;28.25;;
53108;SDS011;39007;53.090;6.074;2022-11-12T05:21:02;117.70;;;28.75;;
53108;SDS011;39007;53.090;6.074;2022-11-12T05:23:48;126.90;;;28.15;;
53108;SDS011;39007;53.090;6.074;2022-11-12T05:26:14;111.65;;;28.95;;
53108;SDS011;39007;53.090;6.074;2022-11-12T05:28:40;154.52;;;31.00;;
53108;SDS011;39007;53.090;6.074;2022-11-12T05:31:06;154.77;;;31.08;;
53108;SDS011;39007;53.090;6.074;2022-11-12T05:33:32;190.32;;;32.05;;
53108;SDS011;39007;53.090;6.074;2022-11-12T05:35:59;126.63;;;33.83;;
53108;SDS011;39007;53.090;6.074;2022-11-12T05:38:25;172.15;;;33.55;;
53108;SDS011;39007;53.090;6.074;2022-11-12T05:40:51;168.88;;;33.40;;
53108;SDS011;39007;53.090;6.074;2022-11-12T05:43:17;199.18;;;35.38;;
53108;SDS011;39007;53.090;6.074;2022-11-12T05:45:43;175.18;;;32.40;;
53108;SDS011;39007;53.090;6.074;2022-11-12T05:48:09;193.18;;;32.35;;
53108;SDS011;39007;53.090;6.074;2022-11-12T05:50:36;185.82;;;31.77;;
53108;SDS011;39007;53.090;6.074;2022-11-12T05:53:02;184.57;;;37.08;;
53108;SDS011;39007;53.090;6.074;2022-11-12T05:55:28;159.10;;;32.72;;
53108;SDS011;39007;53.090;6.074;2022-11-12T05:57:55;134.15;;;31.83;;
53108;SDS011;39007;53.090;6.074;2022-11-12T06:00:21;132.10;;;30.85;;
53108;SDS011;39007;53.090;6.074;2022-11-12T06:02:47;121.03;;;30.92;;
53108;SDS011;39007;53.090;6.074;2022-11-12T06:05:13;106.60;;;30.17;;
53108;SDS011;39007;53.090;6.074;2022-11-12T06:07:39;167.80;;;31.33;;
53108;SDS011;39007;53.090;6.074;2022-11-12T06:10:06;87.80;;;29.40;;
53108;SDS011;39007;53.090;6.074;2022-11-12T06:12:32;139.13;;;30.23;;
53108;SDS011;39007;53.090;6.074;2022-11-12T06:14:58;111.68;;;31.00;;
53108;SDS011;39007;53.090;6.074;2022-11-12T06:17:24;187.57;;;32.50;;
53108;SDS011;39007;53.090;6.074;2022-11-12T06:19:50;130.48;;;31.67;;
53108;SDS011;39007;53.090;6.074;2022-11-12T06:22:16;160.43;;;32.20;;
53108;SDS011;39007;53.090;6.074;2022-11-12T06:24:42;89.75;;;31.45;;
53108;SDS011;39007;53.090;6.074;2022-11-12T06:27:08;159.32;;;33.58;;
53108;SDS011;39007;53.090;6.074;2022-11-12T06:29:34;96.53;;;30.35;;
53108;SDS011;39007;53.090;6.074;2022-11-12T06:32:01;103.65;;;31.98;;
53108;SDS011;39007;53.090;6.074;2022-11-12T06:34:27;93.57;;;32.38;;
53108;SDS011;39007;53.090;6.074;2022-11-12T06:36:53;82.75;;;31.52;;
53108;SDS011;39007;53.090;6.074;2022-11-12T06:39:19;84.05;;;32.05;;
53108;SDS011;39007;53.090;6.074;2022-11-12T06:41:45;76.38;;;30.08;;
53108;SDS011;39007;53.090;6.074;2022-11-12T06:44:11;97.65;;;32.22;;
53108;SDS011;39007;53.090;6.074;2022-11-12T06:46:37;110.13;;;34.17;;
53108;SDS011;39007;53.090;6.074;2022-11-12T06:49:03;134.63;;;33.55;;
53108;SDS011;39007;53.090;6.074;2022-11-12T06:51:29;71.97;;;30.45;;
53108;SDS011;39007;53.090;6.074;2022-11-12T06:53:56;152.80;;;36.85;;
53108;SDS011;39007;53.090;6.074;2022-11-12T06:56:22;107.85;;;33.67;;
53108;SDS011;39007;53.090;6.074;2022-11-12T06:58:48;111.40;;;30.90;;
53108;SDS011;39007;53.090;6.074;2022-11-12T07:01:15;65.25;;;31.27;;
53108;SDS011;39007;53.090;6.074;2022-11-12T07:03:41;98.68;;;33.63;;
53108;SDS011;39007;53.090;6.074;2022-11-12T07:06:14;93.45;;;29.13;;
53108;SDS011;39007;53.090;6.074;2022-11-12T07:08:43;101.60;;;34.13;;
53108;SDS011;39007;53.090;6.074;2022-11-12T07:11:09;88.18;;;30.58;;
53108;SDS011;39007;53.090;6.074;2022-11-12T07:13:35;86.35;;;31.88;;
53108;SDS011;39007;53.090;6.074;2022-11-12T07:16:02;86.10;;;28.88;;
53108;SDS011;39007;53.090;6.074;2022-11-12T07:18:29;74.20;;;28.92;;
53108;SDS011;39007;53.090;6.074;2022-11-12T07:20:56;80.90;;;29.67;;
53108;SDS011;39007;53.090;6.074;2022-11-12T07:23:22;112.03;;;31.73;;
53108;SDS011;39007;53.090;6.074;2022-11-12T07:25:55;87.25;;;29.27;;
53108;SDS011;39007;53.090;6.074;2022-11-12T07:28:22;75.57;;;31.40;;
53108;SDS011;39007;53.090;6.074;2022-11-12T07:31:21;83.65;;;30.00;;
53108;SDS011;39007;53.090;6.074;2022-11-12T07:33:41;95.00;;;28.92;;
53108;SDS011;39007;53.090;6.074;2022-11-12T07:38:34;105.72;;;29.85;;
53108;SDS011;39007;53.090;6.074;2022-11-12T07:41:14;106.57;;;30.95;;
53108;SDS011;39007;53.090;6.074;2022-11-12T07:43:41;143.52;;;34.88;;
53108;SDS011;39007;53.090;6.074;2022-11-12T07:46:17;70.22;;;29.10;;
53108;SDS011;39007;53.090;6.074;2022-11-12T07:48:44;64.45;;;32.53;;
53108;SDS011;39007;53.090;6.074;2022-11-12T07:51:17;68.47;;;30.98;;
53108;SDS011;39007;53.090;6.074;2022-11-12T07:53:44;59.70;;;31.48;;
53108;SDS011;39007;53.090;6.074;2022-11-12T07:56:14;56.40;;;31.35;;
53108;SDS011;39007;53.090;6.074;2022-11-12T07:58:41;58.78;;;31.50;;
53108;SDS011;39007;53.090;6.074;2022-11-12T08:03:43;73.50;;;34.13;;
53108;SDS011;39007;53.090;6.074;2022-11-12T08:06:09;75.30;;;34.92;;
53108;SDS011;39007;53.090;6.074;2022-11-12T08:08:35;63.97;;;33.30;;
53108;SDS011;39007;53.090;6.074;2022-11-12T08:11:01;64.60;;;34.92;;
53108;SDS011;39007;53.090;6.074;2022-11-12T08:13:27;72.20;;;36.85;;
53108;SDS011;39007;53.090;6.074;2022-11-12T08:15:55;76.88;;;35.53;;
53108;SDS011;39007;53.090;6.074;2022-11-12T08:18:22;105.30;;;39.65;;
53108;SDS011;39007;53.090;6.074;2022-11-12T08:20:48;70.18;;;36.33;;
53108;SDS011;39007;53.090;6.074;2022-11-12T08:23:14;64.18;;;36.38;;
53108;SDS011;39007;53.090;6.074;2022-11-12T08:25:40;73.25;;;37.45;;
53108;SDS011;39007;53.090;6.074;2022-11-12T08:28:06;57.13;;;35.60;;
53108;SDS011;39007;53.090;6.074;2022-11-12T08:30:32;65.18;;;36.78;;
53108;SDS011;39007;53.090;6.074;2022-11-12T08:33:03;125.20;;;40.67;;
53108;SDS011;39007;53.090;6.074;2022-11-12T08:35:29;73.03;;;37.92;;
53108;SDS011;39007;53.090;6.074;2022-11-12T08:37:59;78.25;;;38.75;;
53108;SDS011;39007;53.090;6.074;2022-11-12T08:40:26;91.90;;;40.08;;
53108;SDS011;39007;53.090;6.074;2022-11-12T08:42:56;105.90;;;39.75;;
53108;SDS011;39007;53.090;6.074;2022-11-12T08:45:22;140.23;;;40.63;;
53108;SDS011;39007;53.090;6.074;2022-11-12T08:47:49;107.07;;;40.38;;
53108;SDS011;39007;53.090;6.074;2022-11-12T08:50:15;139.88;;;41.88;;
53108;SDS011;39007;53.090;6.074;2022-11-12T08:52:41;127.97;;;41.90;;
53108;SDS011;39007;53.090;6.074;2022-11-12T08:55:07;106.18;;;40.58;;
53108;SDS011;39007;53.090;6.074;2022-11-12T08:57:38;81.75;;;40.00;;
53108;SDS011;39007;53.090;6.074;2022-11-12T09:00:05;184.65;;;45.20;;
53108;SDS011;39007;53.090;6.074;2022-11-12T09:02:31;191.10;;;42.95;;
53108;SDS011;39007;53.090;6.074;2022-11-12T09:04:57;108.63;;;41.58;;
53108;SDS011;39007;53.090;6.074;2022-11-12T09:07:24;110.68;;;41.63;;
53108;SDS011;39007;53.090;6.074;2022-11-12T09:09:50;125.03;;;44.33;;
53108;SDS011;39007;53.090;6.074;2022-11-12T09:12:16;135.95;;;45.97;;
53108;SDS011;39007;53.090;6.074;2022-11-12T09:14:46;132.15;;;45.78;;
53108;SDS011;39007;53.090;6.074;2022-11-12T09:17:13;120.82;;;43.20;;
53108;SDS011;39007;53.090;6.074;2022-11-12T09:19:39;159.27;;;48.17;;
53108;SDS011;39007;53.090;6.074;2022-11-12T09:22:06;110.80;;;46.28;;
53108;SDS011;39007;53.090;6.074;2022-11-12T09:24:32;150.77;;;47.00;;
53108;SDS011;39007;53.090;6.074;2022-11-12T09:26:58;109.20;;;46.92;;
53108;SDS011;39007;53.090;6.074;2022-11-12T09:29:25;126.55;;;49.05;;
53108;SDS011;39007;53.090;6.074;2022-11-12T09:31:51;103.47;;;45.33;;
53108;SDS011;39007;53.090;6.074;2022-11-12T09:34:17;109.50;;;46.55;;
53108;SDS011;39007;53.090;6.074;2022-11-12T09:36:43;110.50;;;50.35;;
53108;SDS011;39007;53.090;6.074;2022-11-12T09:39:09;190.52;;;53.65;;
53108;SDS011;39007;53.090;6.074;2022-11-12T09:41:39;140.85;;;48.63;;
53108;SDS011;39007;53.090;6.074;2022-11-12T09:44:08;114.45;;;44.83;;
53108;SDS011;39007;53.090;6.074;2022-11-12T09:49:44;106.97;;;39.03;;
53108;SDS011;39007;53.090;6.074;2022-11-12T09:51:51;128.20;;;39.38;;
53108;SDS011;39007;53.090;6.074;2022-11-12T09:54:20;123.50;;;39.83;;
53108;SDS011;39007;53.090;6.074;2022-11-12T09:56:47;105.55;;;41.13;;
53108;SDS011;39007;53.090;6.074;2022-11-12T09:59:14;97.10;;;40.03;;
53108;SDS011;39007;53.090;6.074;2022-11-12T10:04:34;122.18;;;40.97;;
53108;SDS011;39007;53.090;6.074;2022-11-12T10:09:54;90.40;;;38.90;;
53108;SDS011;39007;53.090;6.074;2022-11-12T10:15:02;150.40;;;43.58;;
53108;SDS011;39007;53.090;6.074;2022-11-12T10:18:05;80.82;;;40.17;;
53108;SDS011;39007;53.090;6.074;2022-11-12T10:20:38;69.60;;;38.80;;
53108;SDS011;39007;53.090;6.074;2022-11-12T10:23:21;70.63;;;37.13;;
53108;SDS011;39007;53.090;6.074;2022-11-12T10:25:49;49.88;;;29.90;;
53108;SDS011;39007;53.090;6.074;2022-11-12T10:30:45;87.82;;;36.50;;
53108;SDS011;39007;53.090;6.074;2022-11-12T10:33:12;81.50;;;37.63;;
53108;SDS011;39007;53.090;6.074;2022-11-12T10:35:39;80.93;;;39.75;;
53108;SDS011;39007;53.090;6.074;2022-11-12T10:38:05;60.47;;;37.80;;
53108;SDS011;39007;53.090;6.074;2022-11-12T10:40:36;94.78;;;42.10;;
53108;SDS011;39007;53.090;6.074;2022-11-12T10:45:41;72.90;;;38.28;;
53108;SDS011;39007;53.090;6.074;2022-11-12T10:50:47;75.10;;;40.70;;
53108;SDS011;39007;53.090;6.074;2022-11-12T10:53:13;89.57;;;42.50;;
53108;SDS011;39007;53.090;6.074;2022-11-12T10:55:54;71.78;;;41.10;;
53108;SDS011;39007;53.090;6.074;2022-11-12T10:58:20;80.10;;;42.28;;
53108;SDS011;39007;53.090;6.074;2022-11-12T11:00:51;74.00;;;41.53;;
53108;SDS011;39007;53.090;6.074;2022-11-12T11:03:24;83.18;;;42.67;;
53108;SDS011;39007;53.090;6.074;2022-11-12T11:05:52;82.70;;;43.67;;
53108;SDS011;39007;53.090;6.074;2022-11-12T11:13:42;76.18;;;43.78;;
53108;SDS011;39007;53.090;6.074;2022-11-12T11:16:12;71.32;;;42.03;;
53108;SDS011;39007;53.090;6.074;2022-11-12T11:18:40;67.88;;;42.53;;
53108;SDS011;39007;53.090;6.074;2022-11-12T11:26:41;66.68;;;41.88;;
53108;SDS011;39007;53.090;6.074;2022-11-12T11:29:19;78.00;;;46.90;;
53108;SDS011;39007;53.090;6.074;2022-11-12T11:34:29;72.50;;;42.97;;
53108;SDS011;39007;53.090;6.074;2022-11-12T11:42:24;65.32;;;40.80;;
53108;SDS011;39007;53.090;6.074;2022-11-12T11:52:46;65.70;;;40.55;;
53108;SDS011;39007;53.090;6.074;2022-11-12T12:12:45;47.78;;;35.72;;
53108;SDS011;39007;53.090;6.074;2022-11-12T12:23:24;41.08;;;34.15;;
53108;SDS011;39007;53.090;6.074;2022-11-12T12:25:51;39.47;;;32.95;;
53108;SDS011;39007;53.090;6.074;2022-11-12T12:28:25;37.95;;;31.33;;
53108;SDS011;39007;53.090;6.074;2022-11-12T12:30:53;39.85;;;32.25;;
53108;SDS011;39007;53.090;6.074;2022-11-12T12:33:29;37.25;;;30.58;;
53108;SDS011;39007;53.090;6.074;2022-11-12T12:36:04;37.25;;;31.25;;
53108;SDS011;39007;53.090;6.074;2022-11-12T12:38:47;38.13;;;31.17;;
53108;SDS011;39007;53.090;6.074;2022-11-12T12:43:55;35.42;;;29.52;;
53108;SDS011;39007;53.090;6.074;2022-11-12T12:46:24;38.83;;;31.98;;
53108;SDS011;39007;53.090;6.074;2022-11-12T12:48:52;35.03;;;27.20;;
53108;SDS011;39007;53.090;6.074;2022-11-12T12:51:18;45.58;;;33.75;;
53108;SDS011;39007;53.090;6.074;2022-11-12T12:53:45;37.13;;;31.08;;
53108;SDS011;39007;53.090;6.074;2022-11-12T12:58:44;36.25;;;29.75;;
53108;SDS011;39007;53.090;6.074;2022-11-12T13:08:50;34.83;;;29.73;;
53108;SDS011;39007;53.090;6.074;2022-11-12T13:25:00;30.35;;;26.45;;
53108;SDS011;39007;53.090;6.074;2022-11-12T13:40:15;34.75;;;28.40;;
53108;SDS011;39007;53.090;6.074;2022-11-12T13:42:42;31.83;;;28.15;;
53108;SDS011;39007;53.090;6.074;2022-11-12T13:45:18;33.65;;;27.45;;
53108;SDS011;39007;53.090;6.074;2022-11-12T13:47:45;33.13;;;28.02;;
53108;SDS011;39007;53.090;6.074;2022-11-12T13:50:18;30.25;;;26.52;;
53108;SDS011;39007;53.090;6.074;2022-11-12T13:52:46;33.42;;;27.38;;
53108;SDS011;39007;53.090;6.074;2022-11-12T13:55:13;31.80;;;26.77;;
53108;SDS011;39007;53.090;6.074;2022-11-12T13:57:39;30.45;;;25.63;;
53108;SDS011;39007;53.090;6.074;2022-11-12T14:02:48;32.97;;;25.63;;
53108;SDS011;39007;53.090;6.074;2022-11-12T14:05:16;29.52;;;25.63;;
53108;SDS011;39007;53.090;6.074;2022-11-12T14:10:32;28.52;;;23.63;;
53108;SDS011;39007;53.090;6.074;2022-11-12T14:15:27;28.23;;;23.90;;
53108;SDS011;39007;53.090;6.074;2022-11-12T14:20:23;29.60;;;24.85;;
53108;SDS011;39007;53.090;6.074;2022-11-12T14:22:50;31.02;;;24.58;;
53108;SDS011;39007;53.090;6.074;2022-11-12T14:25:17;28.50;;;23.65;;
53108;SDS011;39007;53.090;6.074;2022-11-12T14:27:44;27.85;;;24.70;;
53108;SDS011;39007;53.090;6.074;2022-11-12T14:30:15;28.92;;;24.00;;
53108;SDS011;39007;53.090;6.074;2022-11-12T14:32:43;28.85;;;24.08;;
53108;SDS011;39007;53.090;6.074;2022-11-12T14:37:47;31.48;;;25.27;;
53108;SDS011;39007;53.090;6.074;2022-11-12T14:40:16;30.65;;;25.67;;
53108;SDS011;39007;53.090;6.074;2022-11-12T14:42:42;29.35;;;24.17;;
53108;SDS011;39007;53.090;6.074;2022-11-12T14:45:18;31.80;;;25.50;;
53108;SDS011;39007;53.090;6.074;2022-11-12T14:47:45;29.27;;;25.05;;
53108;SDS011;39007;53.090;6.074;2022-11-12T14:52:45;28.95;;;25.50;;
53108;SDS011;39007;53.090;6.074;2022-11-12T14:55:35;30.80;;;26.15;;
53108;SDS011;39007;53.090;6.074;2022-11-12T15:02:55;28.00;;;24.98;;
53108;SDS011;39007;53.090;6.074;2022-11-12T15:05:21;27.67;;;24.67;;
53108;SDS011;39007;53.090;6.074;2022-11-12T15:10:36;30.08;;;25.55;;
53108;SDS011;39007;53.090;6.074;2022-11-12T15:15:32;31.40;;;25.83;;
53108;SDS011;39007;53.090;6.074;2022-11-12T15:18:03;30.02;;;25.08;;
53108;SDS011;39007;53.090;6.074;2022-11-12T15:20:30;31.17;;;26.67;;
53108;SDS011;39007;53.090;6.074;2022-11-12T15:22:56;27.85;;;24.58;;
53108;SDS011;39007;53.090;6.074;2022-11-12T15:27:49;28.55;;;25.45;;
53108;SDS011;39007;53.090;6.074;2022-11-12T15:32:41;30.55;;;25.27;;
53108;SDS011;39007;53.090;6.074;2022-11-12T15:37:51;28.17;;;24.70;;
53108;SDS011;39007;53.090;6.074;2022-11-12T15:40:20;28.80;;;25.33;;
53108;SDS011;39007;53.090;6.074;2022-11-12T15:42:46;30.63;;;25.55;;
53108;SDS011;39007;53.090;6.074;2022-11-12T15:45:19;29.27;;;26.17;;
53108;SDS011;39007;53.090;6.074;2022-11-12T15:47:46;32.10;;;26.83;;
53108;SDS011;39007;53.090;6.074;2022-11-12T15:52:38;75.10;;;61.22;;
53108;SDS011;39007;53.090;6.074;2022-11-12T15:55:04;35.92;;;29.55;;
53108;SDS011;39007;53.090;6.074;2022-11-12T15:57:31;48.63;;;38.65;;
53108;SDS011;39007;53.090;6.074;2022-11-12T16:00:00;61.42;;;46.35;;
53108;SDS011;39007;53.090;6.074;2022-11-12T16:02:26;40.85;;;34.03;;
53108;SDS011;39007;53.090;6.074;2022-11-12T16:04:56;31.38;;;27.42;;
53108;SDS011;39007;53.090;6.074;2022-11-12T16:07:22;36.47;;;31.65;;
53108;SDS011;39007;53.090;6.074;2022-11-12T16:09:48;44.33;;;37.53;;
53108;SDS011;39007;53.090;6.074;2022-11-12T16:12:16;50.60;;;44.63;;
53108;SDS011;39007;53.090;6.074;2022-11-12T16:14:42;41.13;;;34.78;;
53108;SDS011;39007;53.090;6.074;2022-11-12T16:17:09;33.20;;;28.60;;
53108;SDS011;39007;53.090;6.074;2022-11-12T16:19:36;29.70;;;26.50;;
53108;SDS011;39007;53.090;6.074;2022-11-12T16:22:03;32.40;;;28.85;;
53108;SDS011;39007;53.090;6.074;2022-11-12T16:24:36;32.20;;;27.40;;
53108;SDS011;39007;53.090;6.074;2022-11-12T16:27:03;28.73;;;25.27;;
53108;SDS011;39007;53.090;6.074;2022-11-12T16:29:32;27.40;;;24.08;;
53108;SDS011;39007;53.090;6.074;2022-11-12T16:31:58;30.73;;;27.40;;
53108;SDS011;39007;53.090;6.074;2022-11-12T16:34:24;29.83;;;26.10;;
53108;SDS011;39007;53.090;6.074;2022-11-12T16:36:50;32.55;;;27.65;;
53108;SDS011;39007;53.090;6.074;2022-11-12T16:39:16;28.90;;;25.60;;
53108;SDS011;39007;53.090;6.074;2022-11-12T16:41:42;28.38;;;23.33;;
53108;SDS011;39007;53.090;6.074;2022-11-12T16:44:09;25.73;;;22.88;;
53108;SDS011;39007;53.090;6.074;2022-11-12T16:46:35;25.92;;;22.20;;
53108;SDS011;39007;53.090;6.074;2022-11-12T16:49:04;25.27;;;22.52;;
53108;SDS011;39007;53.090;6.074;2022-11-12T16:51:30;25.17;;;22.48;;
53108;SDS011;39007;53.090;6.074;2022-11-12T16:53:56;32.00;;;28.27;;
53108;SDS011;39007;53.090;6.074;2022-11-12T16:56:23;28.58;;;25.48;;
53108;SDS011;39007;53.090;6.074;2022-11-12T16:58:49;27.20;;;24.33;;